FVGB weather

Gombera Airport
Gombera Ranch, Mashonaland West Province, Zimbabwe

Public forecast

Using degrees Celsius for public forecast. Weather courtesy of forecast.io.

Closest aviation weather report (METAR) to Gombera Airport

Closest report is Robert Gabriel Mugabe International Airport, 72.0 nm (133.3 km) SE. Retrieved 2020/08/07 19:00 UTC (2 hours ago):

FVRG 071900Z 13010KT CAVOK 14/09 Q1031 NOSIG

Closest aviation forecast (TAF) to Gombera Airport

Forecast is more than 12 hours old.

Closest forecast is Robert Gabriel Mugabe International Airport, 72.0 nm (133.3 km) SE. Retrieved 2020/08/07 06:00 UTC (15 hours ago):

TAF FVRG 070400Z 0706/0812 06008KT CAVOK PROB30 TEMPO 0720/0802 11014KT 9999 BKN008